Terminal Aerodrome Forecast
Issued by NWS Sterling, VA

Current Version | Previous Version | Text Only | Print | Product List | Glossary Off
Versions: 1 2 3 4 5 6 7 8 9 10 11 12 13 14 15

000
FTUS41 KLWX 101543 AAA
TAFMRB
TAF AMD
KMRB 101543Z 1016/1112 28008KT P6SM BKN040
     FM101800 26010G18KT P6SM SCT050 SCT100
     FM110000 25007KT P6SM BKN090
     FM110600 23005KT P6SM BKN040=

USA.gov is the U.S. government's official web portal to all federal, state and local government web resources and services.